1°C
Woerden, The Nederlands
Taal:  Nederlands
Updated13/12/2018 19:15 
 
Station Historical Data
Daily Summary for October 13, 2018 Units:  Metric    English   Both
Next Day »
Daily Weekly Monthly Yearly Custom
  High: Low: Average:
Temperature: 26.3 °C 16.2 °C 20.1 °C
Dew Point: 17.5 °C 13.4 °C 15.2 °C
Humidity: 84% 56% 74%
Wind Speed: 25.9km/h 0.0km/h 15.1km/h
Wind Gust: 18.3km/h - -
Wind- - SSE
Pressure: 1017.1 hPa 1011.1 hPa -
Precipitation: 0.0 mm    
Historical Graphs
 
 
Tabular Data for October 13, 2018
Time Temperature Dew Point Pressure Wind Wind Speed Wind Gust Humidity Rainfall Rate (Hourly) solar Conditions
00:04 18.4 °C 15.1 °C 1016.7 hPa SSE 9.7 km/h 7.2 km/h 81% 0.0 mm 0.00 W/m2 RA
00:09 18.3 °C 15.0 °C 1016.7 hPa SSE 7.4 km/h 7.4 km/h 81% 0.0 mm 0.00 W/m2 RA
00:14 18.2 °C 14.9 °C 1016.6 hPa SE 13.0 km/h 8.2 km/h 81% 0.0 mm 0.00 W/m2 CLR
00:19 18.1 °C 15.0 °C 1016.6 hPa SE 13.0 km/h 9.7 km/h 82% 0.0 mm 0.00 W/m2 CLR
00:24 18.1 °C 14.9 °C 1016.5 hPa SE 13.0 km/h 8.7 km/h 82% 0.0 mm 0.00 W/m2 CLR
00:28 18.0 °C 14.9 °C 1016.4 hPa SE 11.1 km/h 7.6 km/h 82% 0.0 mm 0.00 W/m2 CLR
00:33 17.9 °C 14.8 °C 1016.5 hPa SSE 14.5 km/h 7.6 km/h 82% 0.0 mm 0.00 W/m2 CLR
00:39 17.9 °C 14.8 °C 1016.4 hPa SSE 9.7 km/h 7.7 km/h 82% 0.0 mm 0.00 W/m2 CLR
00:44 17.8 °C 14.7 °C 1016.4 hPa SSE 14.8 km/h 8.5 km/h 82% 0.0 mm 0.00 W/m2 CLR
00:48 17.8 °C 14.7 °C 1016.4 hPa SE 14.8 km/h 8.0 km/h 82% 0.0 mm 0.00 W/m2 CLR
00:54 17.7 °C 14.6 °C 1016.4 hPa SSE 16.1 km/h 7.9 km/h 82% 0.0 mm 0.00 W/m2 CLR
00:59 17.7 °C 14.6 °C 1016.4 hPa SSE 14.8 km/h 9.8 km/h 82% 0.0 mm 0.00 W/m2 CLR
01:03 17.7 °C 14.6 °C 1016.4 hPa SSE 14.8 km/h 9.5 km/h 82% 0.0 mm 0.00 W/m2 CLR
01:09 17.6 °C 14.6 °C 1016.4 hPa SSE 16.1 km/h 9.0 km/h 83% 0.0 mm 0.00 W/m2 CLR
01:13 17.5 °C 14.6 °C 1016.4 hPa SSE 13.0 km/h 8.8 km/h 83% 0.0 mm 0.00 W/m2 CLR
01:18 17.5 °C 14.6 °C 1016.4 hPa SE 13.0 km/h 9.2 km/h 83% 0.0 mm 0.00 W/m2 CLR
01:24 17.4 °C 14.5 °C 1016.6 hPa SSE 13.0 km/h 9.0 km/h 83% 0.0 mm 0.00 W/m2 CLR
01:29 17.4 °C 14.5 °C 1016.7 hPa SE 12.9 km/h 8.2 km/h 83% 0.0 mm 0.00 W/m2 CLR
01:34 17.4 °C 14.4 °C 1016.6 hPa SSE 16.1 km/h 9.0 km/h 83% 0.0 mm 0.00 W/m2 CLR
01:39 17.3 °C 14.4 °C 1016.7 hPa SE 14.8 km/h 9.2 km/h 83% 0.0 mm 0.00 W/m2 CLR
01:44 17.2 °C 14.3 °C 1016.7 hPa SE 13.0 km/h 9.0 km/h 83% 0.0 mm 0.00 W/m2 CLR
01:49 17.2 °C 14.3 °C 1016.8 hPa SE 13.0 km/h 8.4 km/h 83% 0.0 mm 0.00 W/m2 CLR
01:54 17.2 °C 14.3 °C 1016.8 hPa SSE 13.0 km/h 8.4 km/h 83% 0.0 mm 0.00 W/m2 CLR
01:59 17.2 °C 14.3 °C 1016.7 hPa SE 13.0 km/h 8.7 km/h 83% 0.0 mm 0.00 W/m2 CLR
02:03 17.2 °C 14.3 °C 1016.8 hPa SSE 13.0 km/h 8.2 km/h 83% 0.0 mm 0.00 W/m2 CLR
02:09 17.2 °C 14.3 °C 1016.8 hPa SE 13.0 km/h 9.0 km/h 83% 0.0 mm 0.00 W/m2 CLR
02:14 17.2 °C 14.3 °C 1017.0 hPa SSE 13.0 km/h 8.4 km/h 83% 0.0 mm 0.00 W/m2 CLR
02:19 17.3 °C 14.4 °C 1017.1 hPa SE 12.9 km/h 8.0 km/h 83% 0.0 mm 0.00 W/m2 CLR
02:23 17.3 °C 14.4 °C 1017.0 hPa SSE 16.7 km/h 10.5 km/h 83% 0.0 mm 0.00 W/m2 CLR
02:28 17.5 °C 14.6 °C 1016.8 hPa SE 16.7 km/h 13.7 km/h 83% 0.0 mm 0.00 W/m2 CLR
02:34 17.6 °C 14.4 °C 1016.8 hPa SE 16.7 km/h 13.2 km/h 82% 0.0 mm 0.00 W/m2 CLR
02:38 17.5 °C 14.4 °C 1016.8 hPa SSE 16.7 km/h 11.4 km/h 82% 0.0 mm 0.00 W/m2 CLR
02:43 17.4 °C 14.3 °C 1016.8 hPa SSE 14.8 km/h 10.6 km/h 82% 0.0 mm 0.00 W/m2 CLR
02:49 17.4 °C 14.3 °C 1016.8 hPa SSE 19.3 km/h 10.6 km/h 82% 0.0 mm 0.00 W/m2 CLR
02:54 17.6 °C 14.4 °C 1016.9 hPa SSE 14.8 km/h 10.1 km/h 82% 0.0 mm 0.00 W/m2 CLR
02:59 17.6 °C 14.4 °C 1016.9 hPa SE 18.5 km/h 12.7 km/h 82% 0.0 mm 0.00 W/m2 CLR
03:04 17.4 °C 14.3 °C 1016.9 hPa SSE 18.5 km/h 13.4 km/h 82% 0.0 mm 0.00 W/m2 CLR
03:08 17.3 °C 14.2 °C 1016.8 hPa SSE 18.5 km/h 11.7 km/h 82% 0.0 mm 0.00 W/m2 CLR
03:14 17.2 °C 14.1 °C 1017.0 hPa SSE 16.1 km/h 10.3 km/h 82% 0.0 mm 0.00 W/m2 CLR
03:19 17.1 °C 14.0 °C 1017.1 hPa SSE 16.1 km/h 9.5 km/h 82% 0.0 mm 0.00 W/m2 CLR
03:24 17.1 °C 14.2 °C 1017.0 hPa SSE 14.5 km/h 9.3 km/h 83% 0.0 mm 0.00 W/m2 CLR
03:28 17.0 °C 14.1 °C 1017.1 hPa SE 13.0 km/h 9.2 km/h 83% 0.0 mm 0.00 W/m2 CLR
03:33 16.9 °C 14.1 °C 1017.0 hPa SSE 14.8 km/h 9.5 km/h 83% 0.0 mm 0.00 W/m2 CLR
03:39 16.8 °C 13.9 °C 1017.0 hPa SSE 14.8 km/h 10.6 km/h 83% 0.0 mm 0.00 W/m2 CLR
03:43 16.8 °C 13.9 °C 1016.9 hPa SSE 16.7 km/h 11.9 km/h 83% 0.0 mm 0.00 W/m2 CLR
03:48 16.7 °C 13.8 °C 1016.9 hPa SSE 16.7 km/h 12.6 km/h 83% 0.0 mm 0.00 W/m2 CLR
03:54 16.7 °C 13.8 °C 1016.9 hPa SE 18.5 km/h 12.9 km/h 83% 0.0 mm 0.00 W/m2 CLR
03:59 16.7 °C 13.8 °C 1016.9 hPa SE 18.5 km/h 11.9 km/h 83% 0.0 mm 0.00 W/m2 CLR
04:03 16.7 °C 13.8 °C 1016.9 hPa SSE 16.7 km/h 11.6 km/h 83% 0.0 mm 0.00 W/m2 CLR
04:09 16.7 °C 13.8 °C 1016.9 hPa SSE 16.7 km/h 11.7 km/h 83% 0.0 mm 0.00 W/m2 CLR
04:13 16.7 °C 13.8 °C 1017.0 hPa SSE 16.7 km/h 10.3 km/h 83% 0.0 mm 0.00 W/m2 CLR
04:19 16.8 °C 13.9 °C 1017.0 hPa SSE 16.7 km/h 11.7 km/h 83% 0.0 mm 0.00 W/m2 CLR
04:24 16.8 °C 13.9 °C 1016.9 hPa SE 14.8 km/h 12.1 km/h 83% 0.0 mm 0.00 W/m2 CLR
04:29 16.8 °C 13.9 °C 1016.8 hPa SSE 14.8 km/h 11.6 km/h 83% 0.0 mm 0.00 W/m2 CLR
04:33 16.7 °C 13.8 °C 1016.8 hPa SSE 14.8 km/h 11.1 km/h 83% 0.0 mm 0.00 W/m2 CLR
04:39 16.7 °C 13.8 °C 1016.9 hPa SSE 16.7 km/h 11.6 km/h 83% 0.0 mm 0.00 W/m2 CLR
04:44 16.7 °C 13.8 °C 1016.8 hPa SSE 16.7 km/h 10.5 km/h 83% 0.0 mm 0.00 W/m2 CLR
04:49 16.6 °C 13.7 °C 1016.8 hPa SSE 14.8 km/h 10.5 km/h 83% 0.0 mm 0.00 W/m2 CLR
04:53 16.5 °C 13.6 °C 1016.8 hPa SSE 13.0 km/h 10.0 km/h 83% 0.0 mm 0.00 W/m2 CLR
04:58 16.5 °C 13.6 °C 1016.9 hPa SSE 13.0 km/h 10.1 km/h 83% 0.0 mm 0.00 W/m2 CLR
05:04 16.4 °C 13.7 °C 1016.8 hPa SE 13.0 km/h 9.2 km/h 84% 0.0 mm 0.00 W/m2 CLR
05:08 16.3 °C 13.6 °C 1016.8 hPa SE 13.0 km/h 8.7 km/h 84% 0.0 mm 0.00 W/m2 CLR
05:14 16.3 °C 13.6 °C 1016.8 hPa SE 16.7 km/h 10.8 km/h 84% 0.0 mm 0.00 W/m2 CLR
05:18 16.3 °C 13.6 °C 1016.8 hPa SE 16.7 km/h 10.8 km/h 84% 0.0 mm 0.00 W/m2 CLR
05:24 16.3 °C 13.6 °C 1016.9 hPa SSE 14.8 km/h 8.8 km/h 84% 0.0 mm 0.00 W/m2 CLR
05:29 16.2 °C 13.5 °C 1016.8 hPa SSE 16.7 km/h 8.8 km/h 84% 0.0 mm 0.00 W/m2 CLR
05:34 16.2 °C 13.5 °C 1016.8 hPa SSE 16.7 km/h 9.2 km/h 84% 0.0 mm 0.00 W/m2 CLR
05:38 16.2 °C 13.5 °C 1016.8 hPa SE 14.8 km/h 10.6 km/h 84% 0.0 mm 0.00 W/m2 CLR
05:44 16.2 °C 13.5 °C 1016.7 hPa SSE 17.7 km/h 10.3 km/h 84% 0.0 mm 0.00 W/m2 CLR
05:49 16.3 °C 13.6 °C 1016.6 hPa SSE 16.7 km/h 9.8 km/h 84% 0.0 mm 0.00 W/m2 CLR
05:54 16.3 °C 13.6 °C 1016.6 hPa SE 17.7 km/h 10.9 km/h 84% 0.0 mm 0.00 W/m2 CLR
05:59 16.3 °C 13.6 °C 1016.5 hPa SE 18.5 km/h 12.4 km/h 84% 0.0 mm 0.00 W/m2 CLR
06:04 16.4 °C 13.7 °C 1016.5 hPa SSE 18.5 km/h 12.9 km/h 84% 0.0 mm 0.00 W/m2 CLR
06:09 16.4 °C 13.7 °C 1016.5 hPa SSE 18.5 km/h 12.2 km/h 84% 0.0 mm 0.00 W/m2 CLR
06:13 16.5 °C 13.8 °C 1016.5 hPa SE 18.5 km/h 13.7 km/h 84% 0.0 mm 0.00 W/m2 CLR
06:19 16.6 °C 13.7 °C 1016.4 hPa SSE 18.5 km/h 14.6 km/h 83% 0.0 mm 0.00 W/m2 CLR
06:23 16.6 °C 13.7 °C 1016.4 hPa SSE 18.5 km/h 14.5 km/h 83% 0.0 mm 0.00 W/m2 CLR
06:29 16.5 °C 13.6 °C 1016.3 hPa SSE 18.5 km/h 13.7 km/h 83% 0.0 mm 0.00 W/m2 CLR
06:34 16.5 °C 13.6 °C 1016.3 hPa SSE 19.3 km/h 13.2 km/h 83% 0.0 mm 0.00 W/m2 CLR
06:38 16.5 °C 13.6 °C 1016.3 hPa SSE 18.5 km/h 13.7 km/h 83% 0.0 mm 0.00 W/m2 CLR
06:44 16.6 °C 13.7 °C 1016.3 hPa SSE 19.3 km/h 13.2 km/h 83% 0.0 mm 0.00 W/m2 CLR
06:48 16.6 °C 13.7 °C 1016.2 hPa SSE 18.5 km/h 12.1 km/h 83% 0.0 mm 0.00 W/m2 CLR
06:53 16.7 °C 13.8 °C 1016.2 hPa SE 18.5 km/h 14.3 km/h 83% 0.0 mm 0.00 W/m2 CLR
06:59 16.6 °C 13.7 °C 1016.4 hPa SSE 18.5 km/h 13.4 km/h 83% 0.0 mm 0.00 W/m2 CLR
07:03 16.6 °C 13.7 °C 1016.3 hPa SSE 16.7 km/h 12.1 km/h 83% 0.0 mm 0.00 W/m2 CLR
07:07 16.6 °C 13.7 °C 1016.3 hPa SE 18.5 km/h 12.2 km/h 83% 0.0 mm 0.00 W/m2 CLR
07:14 16.6 °C 13.7 °C 1016.2 hPa SSE 18.5 km/h 13.7 km/h 83% 0.0 mm 0.00 W/m2 CLR
07:19 16.6 °C 13.7 °C 1016.3 hPa SSE 19.3 km/h 12.1 km/h 83% 0.0 mm 0.00 W/m2 CLR
07:23 16.6 °C 13.8 °C 1016.3 hPa SSE 16.7 km/h 12.6 km/h 84% 0.0 mm 0.00 W/m2 CLR
07:28 16.6 °C 13.8 °C 1016.3 hPa SSE 16.7 km/h 10.6 km/h 84% 0.0 mm 0.00 W/m2 CLR
07:34 16.4 °C 13.7 °C 1016.3 hPa SSE 16.1 km/h 11.1 km/h 84% 0.0 mm 0.00 W/m2 CLR
07:39 16.4 °C 13.7 °C 1016.4 hPa SSE 14.8 km/h 10.9 km/h 84% 0.0 mm 0.00 W/m2 CLR
07:44 16.3 °C 13.6 °C 1016.3 hPa SSE 14.8 km/h 10.0 km/h 84% 0.0 mm 0.00 W/m2 CLR
07:48 16.3 °C 13.6 °C 1016.3 hPa SE 13.0 km/h 10.5 km/h 84% 0.0 mm 0.00 W/m2 CLR
07:54 16.3 °C 13.6 °C 1016.3 hPa SE 14.8 km/h 11.7 km/h 84% 0.0 mm 0.00 W/m2 CLR
07:59 16.3 °C 13.6 °C 1016.4 hPa SE 16.1 km/h 12.1 km/h 84% 0.0 mm 0.00 W/m2 CLR
08:04 16.3 °C 13.6 °C 1016.5 hPa SSE 14.8 km/h 10.0 km/h 84% 0.0 mm 5.00 W/m2 OVC
08:08 16.3 °C 13.6 °C 1016.5 hPa SSE 13.0 km/h 8.5 km/h 84% 0.0 mm 7.00 W/m2 OVC
08:14 16.3 °C 13.6 °C 1016.4 hPa ESE 13.0 km/h 8.4 km/h 84% 0.0 mm 11.00 W/m2 OVC
08:19 16.2 °C 13.5 °C 1016.4 hPa SE 24.1 km/h 9.0 km/h 84% 0.0 mm 12.00 W/m2 OVC
08:24 16.2 °C 13.5 °C 1016.4 hPa SE 14.8 km/h 9.2 km/h 84% 0.0 mm 16.00 W/m2 OVC
08:29 16.3 °C 13.6 °C 1016.5 hPa SE 16.7 km/h 11.3 km/h 84% 0.0 mm 19.00 W/m2 OVC
08:34 16.3 °C 13.6 °C 1016.5 hPa SSE 16.7 km/h 10.6 km/h 84% 0.0 mm 23.00 W/m2 OVC
08:39 16.3 °C 13.6 °C 1016.5 hPa SE 14.8 km/h 9.2 km/h 84% 0.0 mm 28.00 W/m2 OVC
08:43 16.3 °C 13.6 °C 1016.5 hPa SE 12.9 km/h 7.2 km/h 84% 0.0 mm 37.00 W/m2 OVC
08:49 16.4 °C 13.7 °C 1016.5 hPa SSE 14.8 km/h 8.7 km/h 84% 0.0 mm 49.00 W/m2 OVC
08:54 16.6 °C 13.8 °C 1016.5 hPa SE 18.5 km/h 11.1 km/h 84% 0.0 mm 54.00 W/m2 OVC
08:59 16.6 °C 13.9 °C 1016.5 hPa ESE 18.5 km/h 11.1 km/h 84% 0.0 mm 60.00 W/m2 OVC
09:03 16.6 °C 13.8 °C 1016.5 hPa SE 14.8 km/h 8.0 km/h 84% 0.0 mm 72.00 W/m2 OVC
09:09 16.5 °C 13.8 °C 1016.5 hPa SE 14.5 km/h 7.4 km/h 84% 0.0 mm 90.00 W/m2 BKN
09:14 16.6 °C 13.8 °C 1016.6 hPa SSE 13.0 km/h 8.8 km/h 84% 0.0 mm 100.00 W/m2 SCT
09:19 16.7 °C 13.9 °C 1016.7 hPa SSE 16.1 km/h 9.5 km/h 84% 0.0 mm 109.00 W/m2 CLR
09:24 16.8 °C 14.1 °C 1016.8 hPa SE 14.8 km/h 10.1 km/h 84% 0.0 mm 118.00 W/m2 CLR
09:28 16.9 °C 14.2 °C 1016.8 hPa SE 14.8 km/h 10.1 km/h 84% 0.0 mm 130.00 W/m2 CLR
09:34 17.1 °C 14.4 °C 1016.8 hPa SE 13.0 km/h 10.1 km/h 84% 0.0 mm 144.00 W/m2 CLR
09:39 17.3 °C 14.4 °C 1016.7 hPa SE 13.0 km/h 9.3 km/h 83% 0.0 mm 151.00 W/m2 CLR
09:44 17.5 °C 14.6 °C 1016.7 hPa SE 16.1 km/h 10.8 km/h 83% 0.0 mm 148.00 W/m2 CLR
09:49 17.7 °C 14.6 °C 1016.8 hPa SE 16.7 km/h 12.9 km/h 82% 0.0 mm 146.00 W/m2 CLR
09:54 17.8 °C 14.7 °C 1016.8 hPa SSE 18.5 km/h 13.2 km/h 82% 0.0 mm 176.00 W/m2 CLR
09:59 17.9 °C 14.8 °C 1016.8 hPa SSE 19.3 km/h 13.8 km/h 82% 0.0 mm 151.00 W/m2 CLR
10:03 18.1 °C 14.8 °C 1016.8 hPa SE 18.5 km/h 13.0 km/h 81% 0.0 mm 214.00 W/m2 CLR
10:07 18.2 °C 14.9 °C 1016.8 hPa SE 18.5 km/h 13.2 km/h 81% 0.0 mm 220.00 W/m2 CLR
10:13 18.4 °C 15.1 °C 1016.7 hPa SE 16.7 km/h 13.2 km/h 81% 0.0 mm 225.00 W/m2 CLR
10:18 18.7 °C 15.3 °C 1016.7 hPa SE 16.7 km/h 12.9 km/h 81% 0.0 mm 204.00 W/m2 CLR
10:23 18.8 °C 15.3 °C 1016.6 hPa SSE 18.5 km/h 14.0 km/h 80% 0.0 mm 253.00 W/m2 CLR
10:27 18.9 °C 15.2 °C 1016.6 hPa SE 18.5 km/h 14.2 km/h 79% 0.0 mm 262.00 W/m2 CLR
10:33 19.2 °C 15.4 °C 1016.6 hPa SSE 18.5 km/h 14.5 km/h 79% 0.0 mm 271.00 W/m2 CLR
10:39 19.4 °C 15.7 °C 1016.6 hPa SSE 18.5 km/h 13.5 km/h 79% 0.0 mm 276.00 W/m2 CLR
10:44 19.6 °C 15.4 °C 1016.6 hPa SE 19.3 km/h 13.2 km/h 77% 0.0 mm 287.00 W/m2 CLR
10:49 19.7 °C 15.8 °C 1016.4 hPa SE 18.5 km/h 12.9 km/h 78% 0.0 mm 279.00 W/m2 CLR
10:54 19.8 °C 15.7 °C 1016.5 hPa South 20.9 km/h 13.7 km/h 77% 0.0 mm 281.00 W/m2 CLR
10:58 20.0 °C 15.8 °C 1016.4 hPa SE 20.4 km/h 15.6 km/h 77% 0.0 mm 285.00 W/m2 CLR
11:03 20.2 °C 16.1 °C 1016.4 hPa SE 20.4 km/h 16.4 km/h 77% 0.0 mm 322.00 W/m2 CLR
11:09 20.6 °C 16.2 °C 1016.4 hPa SE 22.5 km/h 14.2 km/h 76% 0.0 mm 338.00 W/m2 CLR
11:14 20.8 °C 16.2 °C 1016.5 hPa SSE 20.9 km/h 14.8 km/h 75% 0.0 mm 350.00 W/m2 CLR
11:19 21.1 °C 16.2 °C 1016.2 hPa SE 24.1 km/h 15.6 km/h 74% 0.0 mm 343.00 W/m2 CLR
11:23 21.2 °C 16.2 °C 1016.3 hPa SE 25.9 km/h 16.4 km/h 73% 0.0 mm 362.00 W/m2 CLR
11:29 21.4 °C 16.4 °C 1016.2 hPa SE 25.9 km/h 16.7 km/h 73% 0.0 mm 373.00 W/m2 CLR
11:34 21.7 °C 16.4 °C 1016.2 hPa SE 19.3 km/h 14.3 km/h 72% 0.0 mm 371.00 W/m2 CLR
11:38 21.8 °C 16.3 °C 1016.2 hPa SSE 18.5 km/h 14.6 km/h 71% 0.0 mm 383.00 W/m2 CLR
11:44 22.0 °C 16.5 °C 1016.2 hPa SE 20.9 km/h 16.3 km/h 71% 0.0 mm 385.00 W/m2 CLR
11:48 22.2 °C 16.7 °C 1016.0 hPa SE 19.3 km/h 15.1 km/h 71% 0.0 mm 381.00 W/m2 CLR
11:54 22.3 °C 16.6 °C 1016.0 hPa South 24.1 km/h 16.7 km/h 70% 0.0 mm 359.00 W/m2 CLR
11:59 22.6 °C 16.6 °C 1016.1 hPa SE 24.1 km/h 16.3 km/h 69% 0.0 mm 357.00 W/m2 CLR
12:03 22.8 °C 16.8 °C 1016.0 hPa SSE 24.1 km/h 13.5 km/h 69% 0.0 mm 352.00 W/m2 CLR
12:08 22.9 °C 16.9 °C 1015.8 hPa SE 22.2 km/h 13.0 km/h 69% 0.0 mm 348.00 W/m2 CLR
12:13 23.0 °C 16.8 °C 1015.9 hPa SSE 22.2 km/h 14.3 km/h 68% 0.0 mm 350.00 W/m2 CLR
12:19 23.3 °C 17.3 °C 1015.9 hPa SE 19.3 km/h 12.2 km/h 69% 0.0 mm 346.00 W/m2 CLR
12:24 23.4 °C 16.9 °C 1015.7 hPa SSE 18.5 km/h 13.5 km/h 67% 0.0 mm 353.00 W/m2 CLR
12:28 23.6 °C 17.1 °C 1015.7 hPa SE 18.5 km/h 13.7 km/h 67% 0.0 mm 360.00 W/m2 CLR
12:34 23.6 °C 16.8 °C 1015.8 hPa SSE 25.9 km/h 14.6 km/h 66% 0.0 mm 369.00 W/m2 CLR
12:39 23.6 °C 16.9 °C 1015.8 hPa SE 25.9 km/h 18.0 km/h 66% 0.0 mm 373.00 W/m2 CLR
12:44 23.7 °C 17.0 °C 1015.6 hPa SSE 22.2 km/h 17.5 km/h 66% 0.0 mm 387.00 W/m2 CLR
12:48 23.8 °C 17.1 °C 1015.6 hPa SSE 22.2 km/h 15.6 km/h 66% 0.0 mm 404.00 W/m2 CLR
12:53 24.2 °C 17.4 °C 1015.6 hPa SSE 20.9 km/h 13.7 km/h 66% 0.0 mm 411.00 W/m2 CLR
12:58 24.3 °C 17.3 °C 1015.6 hPa SSE 20.4 km/h 12.1 km/h 65% 0.0 mm 429.00 W/m2 CLR
13:04 24.5 °C 17.2 °C 1015.6 hPa SE 20.4 km/h 12.6 km/h 64% 0.0 mm 434.00 W/m2 CLR
13:08 24.6 °C 17.3 °C 1015.5 hPa SE 18.5 km/h 13.2 km/h 64% 0.0 mm 452.00 W/m2 CLR
13:14 24.7 °C 17.2 °C 1015.5 hPa SSE 20.9 km/h 13.8 km/h 63% 0.0 mm 436.00 W/m2 CLR
13:19 24.7 °C 17.2 °C 1015.4 hPa SSE 25.7 km/h 14.2 km/h 63% 0.0 mm 466.00 W/m2 CLR
13:24 24.8 °C 17.0 °C 1015.4 hPa SSE 24.1 km/h 16.9 km/h 62% 0.0 mm 436.00 W/m2 CLR
13:28 24.8 °C 17.3 °C 1015.3 hPa SSE 24.1 km/h 17.2 km/h 63% 0.0 mm 461.00 W/m2 CLR
13:33 24.9 °C 17.1 °C 1015.1 hPa SSE 24.1 km/h 16.4 km/h 62% 0.0 mm 454.00 W/m2 CLR
13:38 25.0 °C 17.2 °C 1015.2 hPa SSE 24.1 km/h 16.9 km/h 62% 0.0 mm 403.00 W/m2 CLR
13:43 25.2 °C 17.1 °C 1015.0 hPa SSE 24.1 km/h 17.5 km/h 61% 0.0 mm 334.00 W/m2 CLR
13:48 25.1 °C 17.0 °C 1015.0 hPa SSE 24.1 km/h 18.3 km/h 61% 0.0 mm 311.00 W/m2 CLR
13:54 25.1 °C 17.1 °C 1014.9 hPa SSE 24.1 km/h 18.2 km/h 61% 0.0 mm 345.00 W/m2 FEW
13:58 25.2 °C 17.2 °C 1014.8 hPa SE 24.1 km/h 17.1 km/h 61% 0.0 mm 374.00 W/m2 FEW
14:03 25.3 °C 17.2 °C 1014.5 hPa SE 18.5 km/h 14.5 km/h 61% 0.0 mm 397.00 W/m2 FEW
14:08 25.4 °C 16.8 °C 1014.6 hPa SSE 22.2 km/h 15.6 km/h 59% 0.0 mm 424.00 W/m2 CLR
14:13 25.4 °C 16.6 °C 1014.6 hPa SSE 22.2 km/h 16.1 km/h 58% 0.0 mm 429.00 W/m2 CLR
14:18 25.4 °C 16.8 °C 1014.4 hPa SE 22.2 km/h 15.8 km/h 59% 0.0 mm 445.00 W/m2 CLR
14:24 25.5 °C 16.9 °C 1014.5 hPa SSE 25.7 km/h 17.1 km/h 59% 0.0 mm 452.00 W/m2 CLR
14:29 25.6 °C 17.0 °C 1014.5 hPa SSE 20.4 km/h 15.8 km/h 59% 0.0 mm 454.00 W/m2 CLR
14:34 25.7 °C 16.8 °C 1014.3 hPa SE 20.9 km/h 15.8 km/h 58% 0.0 mm 454.00 W/m2 CLR
14:38 25.7 °C 16.8 °C 1014.2 hPa South 25.9 km/h 16.9 km/h 58% 0.0 mm 448.00 W/m2 CLR
14:43 25.8 °C 16.9 °C 1014.2 hPa SSE 25.9 km/h 17.1 km/h 58% 0.0 mm 455.00 W/m2 CLR
14:48 25.9 °C 17.0 °C 1014.1 hPa SSE 25.9 km/h 17.5 km/h 58% 0.0 mm 450.00 W/m2 CLR
14:53 25.9 °C 17.0 °C 1014.1 hPa South 24.1 km/h 17.1 km/h 58% 0.0 mm 443.00 W/m2 CLR
14:58 25.9 °C 17.1 °C 1014.1 hPa SSE 24.1 km/h 17.2 km/h 58% 0.0 mm 439.00 W/m2 CLR
15:03 26.2 °C 17.5 °C 1013.8 hPa South 24.1 km/h 14.5 km/h 59% 0.0 mm 413.00 W/m2 CLR
15:08 26.3 °C 17.1 °C 1013.7 hPa SSE 20.4 km/h 12.6 km/h 57% 0.0 mm 401.00 W/m2 CLR
15:14 26.1 °C 16.9 °C 1013.6 hPa SSE 20.9 km/h 12.6 km/h 57% 0.0 mm 406.00 W/m2 CLR
15:18 26.1 °C 17.2 °C 1013.6 hPa SSE 18.5 km/h 14.2 km/h 58% 0.0 mm 330.00 W/m2 CLR
15:23 26.2 °C 17.3 °C 1013.6 hPa SSE 18.5 km/h 14.0 km/h 58% 0.0 mm 353.00 W/m2 CLR
15:28 26.2 °C 17.3 °C 1013.5 hPa SSE 20.9 km/h 13.2 km/h 58% 0.0 mm 390.00 W/m2 CLR
15:34 26.1 °C 17.2 °C 1013.6 hPa SSE 18.5 km/h 12.9 km/h 58% 0.0 mm 330.00 W/m2 CLR
15:38 26.1 °C 17.2 °C 1013.5 hPa SSE 18.5 km/h 13.7 km/h 58% 0.0 mm 353.00 W/m2 CLR
15:43 26.1 °C 17.2 °C 1013.4 hPa SE 24.1 km/h 13.8 km/h 58% 0.0 mm 338.00 W/m2 CLR
15:48 26.2 °C 17.3 °C 1013.2 hPa South 18.5 km/h 13.7 km/h 58% 0.0 mm 339.00 W/m2 CLR
15:53 26.3 °C 17.3 °C 1013.3 hPa SSE 22.2 km/h 13.7 km/h 58% 0.0 mm 318.00 W/m2 CLR
15:57 26.2 °C 17.3 °C 1013.3 hPa SE 22.5 km/h 14.0 km/h 58% 0.0 mm 336.00 W/m2 CLR
16:03 26.3 °C 17.3 °C 1013.2 hPa SSE 22.2 km/h 14.0 km/h 58% 0.0 mm 257.00 W/m2 FEW
16:09 26.3 °C 16.8 °C 1013.2 hPa SSE 22.2 km/h 13.8 km/h 56% 0.0 mm 272.00 W/m2 FEW
16:13 26.2 °C 17.1 °C 1013.2 hPa SSE 20.4 km/h 14.0 km/h 57% 0.0 mm 260.00 W/m2 FEW
16:18 26.2 °C 17.0 °C 1013.1 hPa SSE 20.4 km/h 13.7 km/h 57% 0.0 mm 281.00 W/m2 FEW
16:24 26.3 °C 17.3 °C 1013.0 hPa SE 19.3 km/h 13.2 km/h 58% 0.0 mm 271.00 W/m2 FEW
16:27 26.3 °C 17.3 °C 1013.0 hPa SE 19.3 km/h 13.2 km/h 58% 0.0 mm 271.00 W/m2 FEW
16:33 26.1 °C 17.2 °C 1012.9 hPa South 18.5 km/h 12.9 km/h 58% 0.0 mm 244.00 W/m2 FEW
16:37 26.1 °C 17.2 °C 1012.9 hPa South 18.5 km/h 12.9 km/h 58% 0.0 mm 244.00 W/m2 FEW
16:43 26.1 °C 17.2 °C 1012.9 hPa South 18.5 km/h 12.9 km/h 58% 0.0 mm 244.00 W/m2 SCT
16:48 25.9 °C 16.8 °C 1012.7 hPa SE 16.7 km/h 11.7 km/h 57% 0.0 mm 209.00 W/m2 SCT
16:53 25.8 °C 16.9 °C 1012.7 hPa SSE 16.7 km/h 11.7 km/h 58% 0.0 mm 199.00 W/m2 SCT
16:58 25.8 °C 17.2 °C 1012.6 hPa SSE 16.7 km/h 12.7 km/h 59% 0.0 mm 221.00 W/m2 SCT
17:03 25.8 °C 16.9 °C 1012.5 hPa SSE 16.7 km/h 12.6 km/h 58% 0.0 mm 211.00 W/m2 SCT
17:08 25.8 °C 16.9 °C 1012.5 hPa SE 16.7 km/h 11.9 km/h 58% 0.0 mm 193.00 W/m2 SCT
17:12 25.8 °C 17.2 °C 1012.5 hPa SSE 16.7 km/h 11.7 km/h 59% 0.0 mm 186.00 W/m2 SCT
17:18 25.7 °C 17.1 °C 1012.5 hPa SE 14.5 km/h 9.5 km/h 59% 0.0 mm 174.00 W/m2 SCT
17:23 25.7 °C 17.3 °C 1012.4 hPa SSE 14.8 km/h 9.3 km/h 60% 0.0 mm 167.00 W/m2 SCT
17:25 25.6 °C 17.3 °C 1012.4 hPa SSE 14.8 km/h 9.0 km/h 60% 0.0 mm 162.00 W/m2 SCT
17:32 25.5 °C 17.4 °C 1012.3 hPa SSE 14.8 km/h 10.0 km/h 61% 0.0 mm 120.00 W/m2 SCT
17:38 25.4 °C 17.3 °C 1012.1 hPa SE 13.0 km/h 7.2 km/h 61% 0.0 mm 91.00 W/m2 SCT
17:44 25.3 °C 17.2 °C 1012.1 hPa SSE 13.0 km/h 6.8 km/h 61% 0.0 mm 56.00 W/m2 BKN
17:47 25.1 °C 17.1 °C 1012.1 hPa SE 13.0 km/h 8.0 km/h 61% 0.0 mm 40.00 W/m2 BKN
17:53 25.1 °C 17.0 °C 1012.0 hPa SE 14.8 km/h 8.2 km/h 61% 0.0 mm 39.00 W/m2 BKN
17:57 24.7 °C 16.9 °C 1012.0 hPa SE 14.8 km/h 10.6 km/h 62% 0.0 mm 30.00 W/m2 BKN
18:02 24.6 °C 16.8 °C 1011.9 hPa SE 16.7 km/h 10.6 km/h 62% 0.0 mm 28.00 W/m2 BKN
18:06 24.1 °C 16.6 °C 1011.8 hPa SE 12.9 km/h 8.7 km/h 63% 0.0 mm 21.00 W/m2 BKN
18:14 23.9 °C 16.7 °C 1011.8 hPa SE 13.0 km/h 9.8 km/h 64% 0.0 mm 16.00 W/m2 BKN
18:16 23.8 °C 16.6 °C 1011.8 hPa SE 14.8 km/h 10.0 km/h 64% 0.0 mm 16.00 W/m2 BKN
18:23 23.8 °C 16.6 °C 1011.9 hPa SE 14.8 km/h 10.1 km/h 64% 0.0 mm 14.00 W/m2 BKN
18:25 23.8 °C 16.6 °C 1011.9 hPa SE 14.8 km/h 10.1 km/h 64% 0.0 mm 14.00 W/m2 BKN
18:32 23.2 °C 16.5 °C 1012.0 hPa SE 7.4 km/h 5.0 km/h 66% 0.0 mm 9.00 W/m2 BKN
18:35 23.2 °C 16.5 °C 1012.0 hPa SE 7.4 km/h 5.0 km/h 66% 0.0 mm 9.00 W/m2 BKN
18:43 22.8 °C 16.6 °C 1012.0 hPa SE 7.4 km/h 4.5 km/h 68% 0.0 mm 0.00 W/m2 BKN
18:48 22.6 °C 16.2 °C 1011.9 hPa SE 13.0 km/h 6.8 km/h 67% 0.0 mm 0.00 W/m2 OVC
18:53 22.4 °C 16.2 °C 1011.9 hPa SE 7.4 km/h 6.4 km/h 68% 0.0 mm 0.00 W/m2 CLR
18:58 22.2 °C 16.0 °C 1011.9 hPa SSE 8.0 km/h 6.3 km/h 68% 0.0 mm 0.00 W/m2 CLR
19:02 22.1 °C 16.1 °C 1011.9 hPa SSE 9.7 km/h 6.0 km/h 69% 0.0 mm 0.00 W/m2 CLR
19:09 21.9 °C 15.9 °C 1011.9 hPa SE 7.4 km/h 5.0 km/h 69% 0.0 mm 0.00 W/m2 CLR
19:13 21.8 °C 16.1 °C 1011.9 hPa SE 5.6 km/h 4.5 km/h 70% 0.0 mm 0.00 W/m2 CLR
19:18 21.5 °C 15.8 °C 1011.9 hPa SE 6.4 km/h 3.1 km/h 70% 0.0 mm 0.00 W/m2 CLR
19:24 21.3 °C 15.8 °C 1011.9 hPa SE 5.6 km/h 3.1 km/h 71% 0.0 mm 0.00 W/m2 CLR
19:28 21.1 °C 15.6 °C 1011.9 hPa SE 8.0 km/h 4.2 km/h 71% 0.0 mm 0.00 W/m2 CLR
19:34 21.0 °C 15.6 °C 1011.9 hPa SE 8.0 km/h 5.5 km/h 71% 0.0 mm 0.00 W/m2 CLR
19:37 20.9 °C 15.5 °C 1011.9 hPa SE 8.0 km/h 5.6 km/h 71% 0.0 mm 0.00 W/m2 CLR
19:42 20.8 °C 15.4 °C 1011.8 hPa SE 8.0 km/h 5.5 km/h 71% 0.0 mm 0.00 W/m2 CLR
19:47 20.6 °C 15.4 °C 1011.8 hPa SE 7.4 km/h 5.5 km/h 72% 0.0 mm 0.00 W/m2 CLR
19:53 20.4 °C 15.4 °C 1011.7 hPa SE 7.4 km/h 5.0 km/h 73% 0.0 mm 0.00 W/m2 CLR
19:58 20.3 °C 15.3 °C 1011.6 hPa SE 8.0 km/h 4.8 km/h 73% 0.0 mm 0.00 W/m2 CLR
20:03 20.4 °C 15.2 °C 1011.7 hPa SE 9.7 km/h 5.1 km/h 72% 0.0 mm 0.00 W/m2 CLR
20:08 20.4 °C 15.2 °C 1011.6 hPa SE 7.4 km/h 5.5 km/h 72% 0.0 mm 0.00 W/m2 CLR
20:13 20.4 °C 15.2 °C 1011.6 hPa SE 7.4 km/h 6.0 km/h 72% 0.0 mm 0.00 W/m2 CLR
20:18 20.4 °C 15.2 °C 1011.6 hPa SE 8.0 km/h 6.4 km/h 72% 0.0 mm 0.00 W/m2 CLR
20:23 20.4 °C 15.0 °C 1011.7 hPa SE 7.4 km/h 6.1 km/h 71% 0.0 mm 0.00 W/m2 CLR
20:28 20.4 °C 15.0 °C 1011.7 hPa SSE 9.7 km/h 5.8 km/h 71% 0.0 mm 0.00 W/m2 CLR
20:34 20.4 °C 15.0 °C 1011.6 hPa SE 8.0 km/h 6.3 km/h 71% 0.0 mm 0.00 W/m2 CLR
20:39 20.4 °C 15.0 °C 1011.5 hPa SE 8.0 km/h 6.3 km/h 71% 0.0 mm 0.00 W/m2 CLR
20:43 20.4 °C 14.9 °C 1011.6 hPa SE 6.4 km/h 5.5 km/h 71% 0.0 mm 0.00 W/m2 CLR
20:48 20.3 °C 15.1 °C 1011.5 hPa SE 5.6 km/h 4.8 km/h 72% 0.0 mm 0.00 W/m2 CLR
20:54 20.2 °C 14.9 °C 1011.5 hPa SE 6.4 km/h 4.7 km/h 72% 0.0 mm 0.00 W/m2 CLR
20:59 20.1 °C 14.9 °C 1011.7 hPa SE 8.0 km/h 4.7 km/h 72% 0.0 mm 0.00 W/m2 CLR
21:04 20.1 °C 14.9 °C 1011.8 hPa SE 7.4 km/h 5.1 km/h 72% 0.0 mm 0.00 W/m2 CLR
21:09 20.1 °C 14.8 °C 1011.7 hPa SE 7.4 km/h 5.1 km/h 72% 0.0 mm 0.00 W/m2 CLR
21:14 19.9 °C 14.9 °C 1011.7 hPa SE 7.4 km/h 3.7 km/h 73% 0.0 mm 0.00 W/m2 CLR
21:19 19.8 °C 14.8 °C 1011.7 hPa SE 5.6 km/h 3.5 km/h 73% 0.0 mm 0.00 W/m2 CLR
21:24 19.6 °C 14.8 °C 1011.6 hPa SE 6.4 km/h 3.5 km/h 74% 0.0 mm 0.00 W/m2 CLR
21:28 19.4 °C 14.6 °C 1011.5 hPa SE 5.6 km/h 4.5 km/h 74% 0.0 mm 0.00 W/m2 CLR
21:34 19.2 °C 14.6 °C 1011.5 hPa SE 6.4 km/h 4.0 km/h 75% 0.0 mm 0.00 W/m2 CLR
21:39 19.1 °C 14.8 °C 1011.6 hPa SE 8.0 km/h 4.5 km/h 76% 0.0 mm 0.00 W/m2 CLR
21:44 19.0 °C 14.7 °C 1011.7 hPa SE 5.6 km/h 4.8 km/h 76% 0.0 mm 0.00 W/m2 CLR
21:49 18.9 °C 14.6 °C 1011.6 hPa SE 5.6 km/h 4.0 km/h 76% 0.0 mm 0.00 W/m2 CLR
21:54 18.8 °C 14.5 °C 1011.6 hPa SSE 6.4 km/h 3.9 km/h 76% 0.0 mm 0.00 W/m2 CLR
21:59 18.8 °C 14.4 °C 1011.6 hPa SSE 5.6 km/h 4.2 km/h 76% 0.0 mm 0.00 W/m2 CLR
22:04 18.7 °C 14.6 °C 1011.7 hPa SSE 5.6 km/h 3.9 km/h 77% 0.0 mm 0.00 W/m2 CLR
22:07 18.7 °C 14.6 °C 1011.7 hPa SSE 5.6 km/h 3.4 km/h 77% 0.0 mm 0.00 W/m2 CLR
22:13 18.7 °C 14.6 °C 1011.7 hPa SE 5.6 km/h 4.2 km/h 77% 0.0 mm 0.00 W/m2 CLR
22:18 18.6 °C 14.5 °C 1011.6 hPa SE 5.6 km/h 3.9 km/h 77% 0.0 mm 0.00 W/m2 CLR
22:23 18.5 °C 14.4 °C 1011.5 hPa SE 5.6 km/h 3.2 km/h 77% 0.0 mm 0.00 W/m2 CLR
22:29 18.4 °C 14.3 °C 1011.4 hPa SE 5.6 km/h 2.7 km/h 77% 0.0 mm 0.00 W/m2 CLR
22:34 18.3 °C 14.4 °C 1011.4 hPa SE 5.6 km/h 3.4 km/h 78% 0.0 mm 0.00 W/m2 CLR
22:39 18.3 °C 14.4 °C 1011.4 hPa SE 5.6 km/h 3.7 km/h 78% 0.0 mm 0.00 W/m2 CLR
22:44 18.3 °C 14.4 °C 1011.4 hPa SE 5.6 km/h 4.3 km/h 78% 0.0 mm 0.00 W/m2 CLR
22:48 18.3 °C 14.2 °C 1011.4 hPa SE 5.6 km/h 4.0 km/h 77% 0.0 mm 0.00 W/m2 CLR
22:54 18.3 °C 14.2 °C 1011.4 hPa SE 5.6 km/h 2.9 km/h 77% 0.0 mm 0.00 W/m2 CLR
22:59 18.3 °C 14.2 °C 1011.5 hPa SE 3.7 km/h 1.9 km/h 77% 0.0 mm 0.00 W/m2 CLR
23:04 18.2 °C 14.1 °C 1011.4 hPa SE 3.7 km/h 0.3 km/h 77% 0.0 mm 0.00 W/m2 CLR
23:09 18.0 °C 14.1 °C 1011.4 hPa SE 3.7 km/h 0.5 km/h 78% 0.0 mm 0.00 W/m2 CLR
23:14 17.9 °C 14.0 °C 1011.4 hPa SE 5.6 km/h 1.8 km/h 78% 0.0 mm 0.00 W/m2 CLR
23:18 17.8 °C 13.9 °C 1011.4 hPa SE 5.6 km/h 2.1 km/h 78% 0.0 mm 0.00 W/m2 CLR
23:24 17.7 °C 14.1 °C 1011.4 hPa SE 5.6 km/h 1.1 km/h 79% 0.0 mm 0.00 W/m2 CLR
23:28 17.7 °C 14.0 °C 1011.3 hPa SE 3.7 km/h 0.8 km/h 79% 0.0 mm 0.00 W/m2 CLR
23:33 17.4 °C 13.8 °C 1011.4 hPa SE 3.7 km/h   79% 0.0 mm 0.00 W/m2 CLR
23:39 17.2 °C 13.7 °C 1011.4 hPa Calm     80% 0.0 mm 0.00 W/m2 CLR
23:43 17.1 °C 13.6 °C 1011.3 hPa Calm     80% 0.0 mm 0.00 W/m2 CLR
23:48 17.0 °C 13.5 °C 1011.3 hPa SE 3.7 km/h 1.3 km/h 80% 0.0 mm 0.00 W/m2 CLR
23:53 16.9 °C 13.4 °C 1011.1 hPa SE 5.6 km/h 2.9 km/h 80% 0.0 mm 0.00 W/m2 CLR
23:59 16.9 °C 13.4 °C 1011.2 hPa ESE 5.6 km/h 3.7 km/h 80% 0.0 mm 0.00 W/m2 CLR
Juneau County Weather